Latest Weather Observations for Wattamolla

IDN60801

Issued at 2:02 pm EST Thursday 28 May 2015 (issued every 30 minutes, with the page automatically refreshed every 10 minutes)

About weather observations | Map of weather stations | Latest weather observations for NSW | Other Formats
Station Details ID: 066208 Name: WATTAMOLLA AWS Lat: -34.14 Lon: 151.12 Height: 44.0 m
Data from the previous 72 hours. | See also: Recent months for locations in New South Wales
Date/Time
EST
Temp
°C
App
Temp
°C
Dew
Point
Rel
Hum
%
Delta-T
°C
Wind Press
QNH
hPa
Press
MSL
hPa
Rain
since 9 am
mm
Dir
 
Spd
km/h
Gust
km/h
Spd
kts
Gust
kts
28/02:00pm - - - - - N 13 19 7 10 - - -
28/01:30pm - - - - - N 15 19 8 10 - - -
28/01:00pm - - - - - N 15 19 8 10 - - -
28/12:30pm - - - - - SSE 9 13 5 7 - - -
28/12:00pm - - - - - - - - - - - - -
28/11:30am - - - - - SSE 6 9 3 5 - - -
28/11:00am - - - - - NNW 11 17 6 9 - - -
28/10:30am - - - - - NNW 15 19 8 10 - - -
28/10:00am - - - - - NW 15 20 8 11 - - -
28/09:30am - - - - - NW 13 22 7 12 - - -
28/09:00am - - - - - NW 17 26 9 14 - - -
28/08:30am - - - - - NW 17 22 9 12 - - -
28/08:00am - - - - - NW 11 15 6 8 - - -
28/07:30am - - - - - NW 15 19 8 10 - - -
28/07:00am - - - - - NW 13 15 7 8 - - -
28/06:30am - - - - - NW 19 20 10 11 - - -
28/06:00am - - - - - NW 15 19 8 10 - - -
28/05:30am - - - - - NW 11 15 6 8 - - -
28/05:00am - - - - - WNW 13 15 7 8 - - -
28/04:30am - - - - - NW 15 19 8 10 - - -
28/04:00am - - - - - NW 13 15 7 8 - - -
28/03:30am - - - - - W 15 19 8 10 - - -
28/03:00am - - - - - WSW 15 22 8 12 - - -
28/02:30am - - - - - WNW 22 28 12 15 - - -
28/02:00am - - - - - WNW 20 28 11 15 - - -
28/01:30am - - - - - WNW 20 28 11 15 - - -
28/01:00am - - - - - WNW 20 28 11 15 - - -
28/12:30am - - - - - WNW 19 28 10 15 - - -
28/12:00am - - - - - WNW 20 26 11 14 - - -
 
Date/Time
EST
Temp
°C
App
Temp
°C
Dew
Point
Rel
Hum
%
Delta-T
°C
Wind Press
QNH
hPa
Press
MSL
hPa
Rain
since 9 am
mm
Dir
 
Spd
km/h
Gust
km/h
Spd
kts
Gust
kts
27/11:30pm - - - - - WNW 20 28 11 15 - - -
27/11:00pm - - - - - WNW 22 30 12 16 - - -
27/10:30pm - - - - - WNW 26 33 14 18 - - -
27/10:00pm - - - - - WNW 19 26 10 14 - - -
27/09:30pm - - - - - WNW 20 26 11 14 - - -
27/09:00pm - - - - - NW 19 26 10 14 - - -
27/08:30pm - - - - - NW 19 24 10 13 - - -
27/08:00pm - - - - - NW 22 28 12 15 - - -
27/07:30pm - - - - - NW 20 28 11 15 - - -
27/07:00pm - - - - - NW 22 28 12 15 - - -
27/06:30pm - - - - - NW 20 26 11 14 - - -
27/06:00pm - - - - - NW 20 24 11 13 - - -
27/05:30pm - - - - - NW 19 22 10 12 - - -
27/05:00pm - - - - - NW 20 26 11 14 - - -
27/04:30pm - - - - - NW 19 22 10 12 - - -
27/04:00pm - - - - - NNW 17 20 9 11 - - -
27/03:30pm - - - - - NNW 13 17 7 9 - - -
27/03:00pm - - - - - N 11 17 6 9 - - -
27/02:30pm - - - - - NNW 13 17 7 9 - - -
27/02:00pm - - - - - NNW 13 17 7 9 - - -
27/01:30pm - - - - - NNW 11 17 6 9 - - -
27/01:00pm - - - - - NNW 11 19 6 10 - - -
27/12:30pm - - - - - NNW 13 19 7 10 - - -
27/12:00pm - - - - - N 17 22 9 12 - - -
27/11:30am - - - - - NNW 15 26 8 14 - - -
27/11:00am - - - - - NNW 13 19 7 10 - - -
27/10:30am - - - - - NNW 13 19 7 10 - - -
27/10:00am - - - - - NW 11 15 6 8 - - -
27/09:30am - - - - - NW 11 17 6 9 - - -
27/09:00am - - - - - NW 13 15 7 8 - - -
27/08:30am - - - - - NW 17 19 9 10 - - -
27/08:00am - - - - - NW 17 19 9 10 - - -
27/07:30am - - - - - NW 19 20 10 11 - - -
27/07:00am - - - - - NW 19 20 10 11 - - -
27/06:30am - - - - - NW 17 19 9 10 - - -
27/06:00am - - - - - NW 19 19 10 10 - - -
27/05:30am - - - - - NW 17 19 9 10 - - -
27/05:00am - - - - - NW 17 19 9 10 - - -
27/04:30am - - - - - NW 17 19 9 10 - - -
27/04:00am - - - - - NW 17 19 9 10 - - -
27/03:30am - - - - - NW 20 22 11 12 - - -
27/03:00am - - - - - NW 17 19 9 10 - - -
27/02:30am - - - - - NW 17 19 9 10 - - -
27/02:00am - - - - - NW 15 17 8 9 - - -
27/01:30am - - - - - NW 19 22 10 12 - - -
27/01:00am - - - - - NW 17 19 9 10 - - -
27/12:30am - - - - - NW 15 19 8 10 - - -
27/12:00am - - - - - NW 15 17 8 9 - - -
 
Date/Time
EST
Temp
°C
App
Temp
°C
Dew
Point
Rel
Hum
%
Delta-T
°C
Wind Press
QNH
hPa
Press
MSL
hPa
Rain
since 9 am
mm
Dir
 
Spd
km/h
Gust
km/h
Spd
kts
Gust
kts
26/11:30pm - - - - - NW 15 17 8 9 - - -
26/11:00pm - - - - - NW 15 17 8 9 - - -
26/10:30pm - - - - - NW 15 17 8 9 - - -
26/10:00pm - - - - - NW 17 20 9 11 - - -
26/09:30pm - - - - - NW 17 19 9 10 - - -
26/09:00pm - - - - - NW 15 17 8 9 - - -
26/08:30pm - - - - - NW 15 19 8 10 - - -
26/08:00pm - - - - - NW 17 17 9 9 - - -
26/07:30pm - - - - - NNW 15 17 8 9 - - -
26/07:00pm - - - - - NW 15 17 8 9 - - -
26/06:30pm - - - - - NW 15 15 8 8 - - -
26/06:00pm - - - - - NW 11 11 6 6 - - -
26/05:30pm - - - - - NW 7 9 4 5 - - -
26/05:00pm - - - - - WSW 7 9 4 5 - - -
26/04:30pm - - - - - S 7 11 4 6 - - -
26/04:00pm - - - - - SSE 7 9 4 5 - - -
26/03:30pm - - - - - S 9 11 5 6 - - -
26/03:00pm - - - - - SSE 11 15 6 8 - - -
26/02:30pm - - - - - S 15 19 8 10 - - -
26/02:00pm - - - - - S 17 24 9 13 - - -
26/01:30pm - - - - - S 19 24 10 13 - - -
26/01:00pm - - - - - S 15 24 8 13 - - -
26/12:30pm - - - - - S 17 24 9 13 - - -
26/12:00pm - - - - - S 20 28 11 15 - - -
26/11:30am - - - - - S 20 26 11 14 - - -
26/11:00am - - - - - S 20 28 11 15 - - -
26/10:30am - - - - - S 22 30 12 16 - - -
26/10:00am - - - - - S 24 32 13 17 - - -
26/09:30am - - - - - S 24 30 13 16 - - -
26/09:00am - - - - - S 13 20 7 11 - - -
26/08:30am - - - - - SSW 11 17 6 9 - - -
26/08:00am - - - - - SW 13 19 7 10 - - -
26/07:30am - - - - - SW 15 19 8 10 - - -
26/07:00am - - - - - WSW 15 19 8 10 - - -
26/06:30am - - - - - SW 15 19 8 10 - - -
26/06:00am - - - - - WSW 15 19 8 10 - - -
26/05:30am - - - - - WSW 15 17 8 9 - - -
26/05:00am - - - - - SW 15 19 8 10 - - -
26/04:30am - - - - - SW 15 19 8 10 - - -
26/04:00am - - - - - SW 15 20 8 11 - - -
26/03:30am - - - - - SW 15 19 8 10 - - -
26/03:00am - - - - - WSW 13 15 7 8 - - -
26/02:30am - - - - - WSW 13 15 7 8 - - -
26/02:00am - - - - - WSW 11 15 6 8 - - -
26/01:30am - - - - - WSW 13 13 7 7 - - -
26/01:00am - - - - - WSW 13 15 7 8 - - -
26/12:30am - - - - - W 13 15 7 8 - - -
26/12:00am - - - - - W 15 19 8 10 - - -
 
Date/Time
EST
Temp
°C
App
Temp
°C
Dew
Point
Rel
Hum
%
Delta-T
°C
Wind Press
QNH
hPa
Press
MSL
hPa
Rain
since 9 am
mm
Dir
 
Spd
km/h
Gust
km/h
Spd
kts
Gust
kts
25/11:30pm - - - - - W 17 20 9 11 - - -
25/11:00pm - - - - - W 19 24 10 13 - - -
25/10:30pm - - - - - W 22 28 12 15 - - -
25/10:00pm - - - - - W 22 28 12 15 - - -
25/09:30pm - - - - - WNW 20 26 11 14 - - -
25/09:00pm - - - - - WNW 20 24 11 13 - - -
25/08:30pm - - - - - NW 17 20 9 11 - - -
25/08:00pm - - - - - NW 17 22 9 12 - - -
25/07:30pm - - - - - NW 19 19 10 10 - - -
25/07:00pm - - - - - NW 19 22 10 12 - - -
25/06:30pm - - - - - NW 19 20 10 11 - - -
25/06:00pm - - - - - NW 17 19 9 10 - - -
25/05:30pm - - - - - NW 15 19 8 10 - - -
25/05:00pm - - - - - NW 13 17 7 9 - - -
25/04:30pm - - - - - NNW 7 11 4 6 - - -
25/04:00pm - - - - - N 9 11 5 6 - - -
25/03:30pm - - - - - N 9 15 5 8 - - -
25/03:00pm - - - - - N 11 15 6 8 - - -
25/02:30pm - - - - - N 13 17 7 9 - - -

Other Formats:

Comma delimited format used in spreadsheet applications
http://www.bom.gov.au/fwo/IDN60801/IDN60801.95752.axf

JavaScript Object Notation format (JSON) in row-major order
http://www.bom.gov.au/fwo/IDN60801/IDN60801.95752.json